createdAt,value
2023-05-11T00:03:31.616Z,11.37
2023-05-11T00:08:35.668Z,11.31
2023-05-11T00:13:39.925Z,11.28
2023-05-11T00:18:44.071Z,11.43
2023-05-11T00:23:48.257Z,11.49
2023-05-11T00:28:52.389Z,11.47
2023-05-11T00:33:56.539Z,11.51
2023-05-11T00:39:00.685Z,11.55
2023-05-11T00:44:04.882Z,11.54
2023-05-11T00:49:08.974Z,11.58
2023-05-11T00:54:13.178Z,11.63
2023-05-11T00:59:17.367Z,11.66
2023-05-11T01:04:21.506Z,11.74
2023-05-11T01:09:25.630Z,11.79
2023-05-11T01:14:29.817Z,11.81
2023-05-11T01:19:33.972Z,11.84
2023-05-11T01:24:38.141Z,11.82
2023-05-11T01:29:42.290Z,11.86
2023-05-11T01:34:46.483Z,11.88
2023-05-11T01:39:50.597Z,11.87
2023-05-11T01:44:54.785Z,11.84
2023-05-11T01:49:58.954Z,11.83
2023-05-11T01:55:03.107Z,11.86
2023-05-11T02:00:07.266Z,11.85
2023-05-11T02:05:11.438Z,11.83
2023-05-11T02:10:15.662Z,11.80
2023-05-11T02:15:19.718Z,11.77
2023-05-11T02:20:23.886Z,11.78
2023-05-11T02:25:28.096Z,11.79
2023-05-11T02:30:32.302Z,11.76
2023-05-11T02:35:36.411Z,11.78
2023-05-11T02:40:40.554Z,11.78
2023-05-11T02:45:42.856Z,11.80
2023-05-11T02:50:46.965Z,11.82
2023-05-11T02:55:51.147Z,11.84
2023-05-11T03:00:55.389Z,11.83
2023-05-11T03:05:59.519Z,11.84
2023-05-11T03:11:03.597Z,11.89
2023-05-11T03:16:07.919Z,11.90
2023-05-11T03:21:11.905Z,11.92
2023-05-11T03:26:16.162Z,11.93
2023-05-11T03:31:20.289Z,11.95
2023-05-11T03:36:24.414Z,11.96
2023-05-11T03:41:28.544Z,11.96
2023-05-11T03:46:32.949Z,11.99
2023-05-11T03:51:37.266Z,12.00
2023-05-11T03:56:41.101Z,11.97
2023-05-11T04:01:45.216Z,11.98
2023-05-11T04:06:49.408Z,11.96
2023-05-11T04:11:53.486Z,11.92
2023-05-11T04:16:57.701Z,11.89
2023-05-11T04:22:01.839Z,11.92
2023-05-11T04:27:06.062Z,11.94
2023-05-11T04:32:10.169Z,11.96
2023-05-11T04:37:14.363Z,12.00
2023-05-11T04:42:18.559Z,11.99
2023-05-11T04:47:22.714Z,12.02
2023-05-11T04:52:26.828Z,12.05
2023-05-11T04:57:31.009Z,12.08
2023-05-11T05:02:35.204Z,12.13
2023-05-11T05:07:39.351Z,12.20
2023-05-11T05:12:43.467Z,12.25
2023-05-11T05:17:47.857Z,12.34
2023-05-11T05:22:51.735Z,12.37
2023-05-11T05:27:56.003Z,12.38
2023-05-11T05:33:00.173Z,12.46
2023-05-11T05:38:04.262Z,12.52
2023-05-11T05:43:08.485Z,12.57
2023-05-11T05:48:12.595Z,12.68
2023-05-11T05:53:16.778Z,12.76
2023-05-11T05:58:20.996Z,12.80
2023-05-11T06:03:27.644Z,12.86
2023-05-11T06:08:29.261Z,12.92
2023-05-11T06:13:33.361Z,13.03
2023-05-11T06:18:37.697Z,13.19
2023-05-11T06:23:41.733Z,13.16
2023-05-11T06:28:46.004Z,13.22
2023-05-11T06:33:50.040Z,13.36
2023-05-11T06:38:54.196Z,13.41
2023-05-11T06:43:58.357Z,13.43
2023-05-11T06:49:02.520Z,13.58
2023-05-11T06:54:06.708Z,13.63
2023-05-11T06:59:10.887Z,13.73
2023-05-11T07:04:15.052Z,13.93
2023-05-11T07:09:19.184Z,14.05
2023-05-11T07:14:23.324Z,14.31
2023-05-11T07:19:27.608Z,14.40
2023-05-11T07:24:31.606Z,14.37
2023-05-11T07:29:35.851Z,14.31
2023-05-11T07:34:39.962Z,14.32
2023-05-11T07:39:44.157Z,14.53
2023-05-11T07:44:48.297Z,14.84
2023-05-11T07:49:52.480Z,15.05
2023-05-11T07:54:56.589Z,15.40
2023-05-11T08:00:00.972Z,15.59
2023-05-11T08:05:04.980Z,15.78
2023-05-11T08:10:09.153Z,16.15
2023-05-11T08:15:11.391Z,16.29
2023-05-11T08:20:15.537Z,16.59
2023-05-11T08:25:19.820Z,16.89
2023-05-11T08:30:23.892Z,16.88
2023-05-11T08:35:28.013Z,16.73
2023-05-11T08:40:32.154Z,16.48
2023-05-11T08:45:36.367Z,16.16
2023-05-11T08:50:40.461Z,16.21
2023-05-11T08:55:44.625Z,16.19
2023-05-11T09:00:48.795Z,16.21
2023-05-11T09:05:53.038Z,16.22
2023-05-11T09:10:57.146Z,16.26
2023-05-11T09:16:01.286Z,16.33
2023-05-11T09:21:05.410Z,16.30
2023-05-11T09:26:09.580Z,16.36
2023-05-11T09:31:13.848Z,16.31
2023-05-11T09:36:17.936Z,16.53
2023-05-11T09:41:22.162Z,16.62
2023-05-11T09:46:26.251Z,16.53
2023-05-11T09:51:30.399Z,16.76
2023-05-11T09:56:35.295Z,16.71
2023-05-11T10:01:38.733Z,16.55
2023-05-11T10:06:42.854Z,16.40
2023-05-11T10:11:47.022Z,16.35
2023-05-11T10:16:51.194Z,16.29
2023-05-11T10:21:55.360Z,15.97
2023-05-11T10:26:59.519Z,16.11
2023-05-11T10:32:03.688Z,16.16
2023-05-11T10:37:07.783Z,16.29
2023-05-11T10:42:11.980Z,16.33
2023-05-11T10:47:16.139Z,16.48
2023-05-11T10:52:20.357Z,16.54
2023-05-11T10:57:24.466Z,16.79
2023-05-11T11:02:28.632Z,16.96
2023-05-11T11:07:32.733Z,17.14
2023-05-11T11:12:36.993Z,17.27
2023-05-11T11:17:41.124Z,17.20
2023-05-11T11:22:45.239Z,17.41
2023-05-11T11:27:49.459Z,17.51
2023-05-11T11:32:53.633Z,17.42
2023-05-11T11:37:57.777Z,17.26
2023-05-11T11:43:01.943Z,17.10
2023-05-11T11:48:06.118Z,17.01
2023-05-11T11:53:10.246Z,17.15
2023-05-11T11:58:14.356Z,17.24
2023-05-11T12:03:18.653Z,17.34
2023-05-11T12:08:22.666Z,17.55
2023-05-11T12:13:26.836Z,17.82
2023-05-11T12:18:31.082Z,18.06
2023-05-11T12:23:35.128Z,18.10
2023-05-11T12:28:39.343Z,18.15
2023-05-11T12:33:43.504Z,18.15
2023-05-11T12:38:47.644Z,18.16
2023-05-11T12:43:51.819Z,18.33
2023-05-11T12:48:57.352Z,18.33
2023-05-11T12:54:00.155Z,18.38
2023-05-11T12:59:04.290Z,18.43
2023-05-11T13:04:08.515Z,18.45
2023-05-11T13:09:12.584Z,18.28
2023-05-11T13:14:16.988Z,18.18
2023-05-11T13:19:20.854Z,18.19
2023-05-11T13:24:25.048Z,18.13
2023-05-11T13:29:29.225Z,18.20
2023-05-11T13:34:33.386Z,18.05
2023-05-11T13:39:37.540Z,17.92
2023-05-11T13:44:39.820Z,17.64
2023-05-11T13:49:43.980Z,17.07
2023-05-11T13:54:48.143Z,16.55
2023-05-11T13:59:52.328Z,16.13
2023-05-11T14:04:56.477Z,15.90
2023-05-11T14:10:00.587Z,15.55
2023-05-11T14:15:02.935Z,15.28
2023-05-11T14:20:07.017Z,15.07
2023-05-11T14:25:11.166Z,14.92
2023-05-11T14:30:15.396Z,14.94
2023-05-11T14:35:19.731Z,14.86
2023-05-11T14:40:23.673Z,14.76
2023-05-11T14:45:27.816Z,14.98
2023-05-11T14:50:31.978Z,15.18
2023-05-11T14:55:36.190Z,15.13
2023-05-11T15:00:40.366Z,15.06
2023-05-11T15:05:44.531Z,14.98
2023-05-11T15:10:48.678Z,14.89
2023-05-11T15:15:52.912Z,14.90
2023-05-11T15:20:56.962Z,14.98
2023-05-11T15:26:01.128Z,15.00
2023-05-11T15:31:05.295Z,15.11
2023-05-11T15:36:09.464Z,15.19
2023-05-11T15:41:13.573Z,15.20
2023-05-11T15:46:17.820Z,15.10
2023-05-11T15:51:21.914Z,15.15
2023-05-11T15:56:26.061Z,15.15
2023-05-11T16:01:30.238Z,15.17
2023-05-11T16:06:34.430Z,15.27
2023-05-11T16:11:38.550Z,15.19
2023-05-11T16:16:42.758Z,15.13
2023-05-11T16:21:46.874Z,15.13
2023-05-11T16:26:51.033Z,14.98
2023-05-11T16:31:55.368Z,14.94
2023-05-11T16:36:59.579Z,14.86
2023-05-11T16:42:03.486Z,14.94
2023-05-11T16:47:07.682Z,14.84
2023-05-11T16:52:11.933Z,14.84
2023-05-11T16:57:16.069Z,14.75
2023-05-11T17:02:20.255Z,14.72
2023-05-11T17:07:24.348Z,14.68
2023-05-11T17:12:28.462Z,14.69
2023-05-11T17:17:32.691Z,14.63
2023-05-11T17:32:45.475Z,14.54
2023-05-11T17:37:49.308Z,14.50
2023-05-11T17:42:53.415Z,14.40
2023-05-11T17:47:57.675Z,14.14
2023-05-11T17:53:01.949Z,14.13
2023-05-11T17:58:05.901Z,14.21
2023-05-11T18:03:10.238Z,14.25
2023-05-11T18:08:14.248Z,14.24
2023-05-11T18:13:18.408Z,14.20
2023-05-11T18:18:22.693Z,14.15
2023-05-11T18:23:28.917Z,14.09
2023-05-11T18:28:30.939Z,14.07
2023-05-11T18:33:35.036Z,14.07
2023-05-11T18:38:39.219Z,14.03
2023-05-11T18:43:43.397Z,13.96
2023-05-11T18:48:47.577Z,13.90
2023-05-11T18:53:54.051Z,13.91
2023-05-11T18:58:55.863Z,13.90
2023-05-11T19:03:59.998Z,13.85
2023-05-11T19:09:04.171Z,13.75
2023-05-11T19:14:08.323Z,13.70
2023-05-11T19:19:12.585Z,13.69
2023-05-11T19:24:16.651Z,13.67
2023-05-11T19:29:20.869Z,13.64
2023-05-11T19:34:24.971Z,13.60
2023-05-11T19:39:29.122Z,13.56
2023-05-11T19:44:31.361Z,13.54
2023-05-11T19:49:35.611Z,13.51
2023-05-11T19:54:39.714Z,13.46
2023-05-11T19:59:43.836Z,13.44
2023-05-11T20:04:47.993Z,13.44
2023-05-11T20:09:52.251Z,13.37
2023-05-11T20:14:56.341Z,13.36
2023-05-11T20:20:00.511Z,13.36
2023-05-11T20:25:04.695Z,13.31
2023-05-11T20:30:08.845Z,13.33
2023-05-11T20:35:13.025Z,13.29
2023-05-11T20:45:21.307Z,13.24
2023-05-11T20:50:25.438Z,13.18
2023-05-11T20:55:29.667Z,13.15
2023-05-11T21:00:33.800Z,13.19
2023-05-11T21:05:37.962Z,13.20
2023-05-11T21:10:42.085Z,13.21
2023-05-11T21:15:46.291Z,13.22
2023-05-11T21:20:50.767Z,13.18
2023-05-11T21:25:54.629Z,13.19
2023-05-11T21:30:58.857Z,13.18
2023-05-11T21:36:04.358Z,13.18
2023-05-11T21:41:07.077Z,13.18
2023-05-11T21:46:11.256Z,13.19
2023-05-11T21:51:15.390Z,13.18
2023-05-11T21:56:19.563Z,13.18
2023-05-11T22:01:23.731Z,13.18
2023-05-11T22:06:27.871Z,13.16
2023-05-11T22:11:32.016Z,13.13
2023-05-11T22:16:36.209Z,13.11
2023-05-11T22:21:40.374Z,13.12
2023-05-11T22:26:44.635Z,13.12
2023-05-11T22:31:48.687Z,13.11
2023-05-11T22:36:52.887Z,13.12
2023-05-11T22:41:56.965Z,13.12
2023-05-11T22:47:01.144Z,13.11
2023-05-11T22:52:05.338Z,13.16
2023-05-11T22:57:09.479Z,13.15
2023-05-11T23:02:13.664Z,13.14
2023-05-11T23:07:17.757Z,13.16
2023-05-11T23:12:21.930Z,13.14
2023-05-11T23:17:26.196Z,13.14
2023-05-11T23:22:30.240Z,13.12
2023-05-11T23:27:34.433Z,13.11
2023-05-11T23:32:38.694Z,13.10
2023-05-11T23:37:42.775Z,13.09
2023-05-11T23:42:46.908Z,13.10
2023-05-11T23:47:51.163Z,13.11
2023-05-11T23:52:55.274Z,13.13
2023-05-11T23:57:59.430Z,13.16
